AFR155 LFML-LFKJ
Flight info
| Callsign | AFR155 |
|---|---|
| Flight time | 0h 39m |
| Altitude | 23000 |
| Route | TINOT Z154 RUBAS |
| Aircraft | A320/M-SDE3FGHIRWY/LB1 |
Departure
| Time | 2026-05-04 18:32 |
|---|---|
| Airport | Marseille Provence Airport (LFML) |
Arrival
| Time | 2026-05-04 19:11 |
|---|---|
| Airport | Ajaccio Napoléon Bonaparte airport (LFKJ) |
| Time | Latitude | Longitude | Altitude | Speed | Heading |
|---|---|---|---|---|---|
| 2026-05-04 18:15 | 43.43977 | 5.22190 | 38 ft | 0 kts | 58° |
| 2026-05-04 18:24 | 43.43973 | 5.22182 | 37 ft | 4 kts | 58° |
| 2026-05-04 18:24 | 43.43961 | 5.22154 | 37 ft | 4 kts | 56° |
| 2026-05-04 18:25 | 43.43944 | 5.22131 | 36 ft | 4 kts | 13° |
| 2026-05-04 18:25 | 43.43924 | 5.22133 | 36 ft | 4 kts | 321° |
| 2026-05-04 18:25 | 43.43916 | 5.22143 | 34 ft | 1 kts | 314° |
| 2026-05-04 18:27 | 43.43940 | 5.22110 | 36 ft | 12 kts | 314° |
| 2026-05-04 18:27 | 43.43995 | 5.22017 | 37 ft | 12 kts | 280° |
| 2026-05-04 18:27 | 43.43951 | 5.21927 | 37 ft | 13 kts | 223° |
| 2026-05-04 18:27 | 43.43897 | 5.21825 | 37 ft | 13 kts | 295° |
| 2026-05-04 18:28 | 43.43959 | 5.21731 | 37 ft | 13 kts | 312° |
| 2026-05-04 18:28 | 43.43958 | 5.21615 | 37 ft | 14 kts | 233° |
| 2026-05-04 18:28 | 43.43922 | 5.21486 | 37 ft | 17 kts | 290° |
| 2026-05-04 18:28 | 43.44007 | 5.21366 | 37 ft | 19 kts | 319° |
| 2026-05-04 18:29 | 43.44104 | 5.21231 | 37 ft | 21 kts | 313° |
| 2026-05-04 18:29 | 43.44213 | 5.21074 | 37 ft | 24 kts | 314° |
| 2026-05-04 18:29 | 43.44312 | 5.20881 | 37 ft | 25 kts | 297° |
| 2026-05-04 18:29 | 43.44432 | 5.20688 | 37 ft | 28 kts | 313° |
| 2026-05-04 18:30 | 43.44723 | 5.20278 | 37 ft | 32 kts | 314° |
| 2026-05-04 18:30 | 43.44883 | 5.20050 | 37 ft | 34 kts | 314° |
| 2026-05-04 18:30 | 43.44975 | 5.19846 | 37 ft | 20 kts | 250° |
| 2026-05-04 18:31 | 43.44892 | 5.19769 | 35 ft | 13 kts | 155° |
| 2026-05-04 18:31 | 43.44854 | 5.19813 | 35 ft | 6 kts | 122° |
| 2026-05-04 18:31 | 43.44838 | 5.19842 | 33 ft | 0 kts | 131° |
| 2026-05-04 18:31 | 43.44739 | 5.19986 | 34 ft | 62 kts | 133° |
| 2026-05-04 18:32 | 43.44243 | 5.20696 | 35 ft | 140 kts | 134° |
| 2026-05-04 18:32 | 43.43473 | 5.21790 | 415 ft | 171 kts | 133° |
| 2026-05-04 18:32 | 43.42608 | 5.22897 | 1495 ft | 168 kts | 139° |
| 2026-05-04 18:32 | 43.41630 | 5.23822 | 2241 ft | 178 kts | 143° |
| 2026-05-04 18:33 | 43.40500 | 5.24790 | 2611 ft | 203 kts | 144° |
| 2026-05-04 18:33 | 43.39255 | 5.25864 | 3110 ft | 225 kts | 146° |
| 2026-05-04 18:33 | 43.37895 | 5.27035 | 3911 ft | 235 kts | 147° |
| 2026-05-04 18:33 | 43.36475 | 5.28255 | 4780 ft | 244 kts | 149° |
| 2026-05-04 18:34 | 43.35011 | 5.29512 | 5631 ft | 252 kts | 149° |
| 2026-05-04 18:34 | 43.33502 | 5.30812 | 6482 ft | 258 kts | 150° |
| 2026-05-04 18:34 | 43.32029 | 5.32006 | 7271 ft | 262 kts | 158° |
| 2026-05-04 18:34 | 43.30280 | 5.32748 | 8114 ft | 264 kts | 173° |
| 2026-05-04 18:35 | 43.28446 | 5.32886 | 9038 ft | 266 kts | 180° |
| 2026-05-04 18:35 | 43.26590 | 5.32929 | 10001 ft | 265 kts | 181° |
| 2026-05-04 18:35 | 43.24707 | 5.32966 | 10573 ft | 282 kts | 181° |
| 2026-05-04 18:35 | 43.22663 | 5.33000 | 10845 ft | 305 kts | 181° |
| 2026-05-04 18:36 | 43.20482 | 5.33040 | 11269 ft | 321 kts | 181° |
| 2026-05-04 18:36 | 43.18218 | 5.33090 | 12044 ft | 325 kts | 181° |
| 2026-05-04 18:36 | 43.15934 | 5.33145 | 12755 ft | 331 kts | 182° |
| 2026-05-04 18:36 | 43.13748 | 5.33198 | 13485 ft | 335 kts | 181° |
| 2026-05-04 18:37 | 43.11411 | 5.33256 | 14213 ft | 338 kts | 181° |
| 2026-05-04 18:37 | 43.09034 | 5.33315 | 14830 ft | 343 kts | 181° |
| 2026-05-04 18:37 | 43.06636 | 5.33374 | 15517 ft | 347 kts | 181° |
| 2026-05-04 18:37 | 43.04208 | 5.33428 | 16209 ft | 350 kts | 181° |
| 2026-05-04 18:38 | 43.01795 | 5.33480 | 16874 ft | 353 kts | 181° |
| 2026-05-04 18:38 | 42.99319 | 5.33481 | 17538 ft | 357 kts | 182° |
| 2026-05-04 18:38 | 42.96829 | 5.33365 | 18199 ft | 360 kts | 184° |
| 2026-05-04 18:38 | 42.94316 | 5.33180 | 18795 ft | 363 kts | 185° |
| 2026-05-04 18:39 | 42.91791 | 5.32973 | 19413 ft | 364 kts | 185° |
| 2026-05-04 18:39 | 42.89262 | 5.32770 | 19982 ft | 366 kts | 185° |
| 2026-05-04 18:39 | 42.86698 | 5.32577 | 20467 ft | 371 kts | 185° |
| 2026-05-04 18:39 | 42.84100 | 5.32398 | 20984 ft | 375 kts | 185° |
| 2026-05-04 18:40 | 42.81481 | 5.32229 | 21501 ft | 379 kts | 185° |
| 2026-05-04 18:40 | 42.78839 | 5.32064 | 22024 ft | 382 kts | 185° |
| 2026-05-04 18:40 | 42.76173 | 5.32015 | 22528 ft | 387 kts | 178° |
| 2026-05-04 18:40 | 42.73509 | 5.32782 | 22894 ft | 397 kts | 163° |
| 2026-05-04 18:41 | 42.71043 | 5.34517 | 22974 ft | 405 kts | 148° |
| 2026-05-04 18:41 | 42.68959 | 5.37156 | 22984 ft | 415 kts | 132° |
| 2026-05-04 18:41 | 42.67504 | 5.40575 | 22986 ft | 423 kts | 115° |
| 2026-05-04 18:41 | 42.66536 | 5.44356 | 22987 ft | 425 kts | 112° |
| 2026-05-04 18:42 | 42.65590 | 5.48171 | 22987 ft | 425 kts | 112° |
| 2026-05-04 18:42 | 42.64647 | 5.51972 | 22989 ft | 425 kts | 112° |
| 2026-05-04 18:42 | 42.63698 | 5.55778 | 22987 ft | 425 kts | 112° |
| 2026-05-04 18:42 | 42.62741 | 5.59574 | 22984 ft | 425 kts | 112° |
| 2026-05-04 18:43 | 42.61786 | 5.63350 | 22988 ft | 425 kts | 112° |
| 2026-05-04 18:43 | 42.60825 | 5.67153 | 22988 ft | 425 kts | 112° |
| 2026-05-04 18:43 | 42.59896 | 5.70828 | 22987 ft | 425 kts | 112° |
| 2026-05-04 18:43 | 42.58935 | 5.74619 | 22973 ft | 425 kts | 112° |
| 2026-05-04 18:44 | 42.57972 | 5.78408 | 22981 ft | 425 kts | 112° |
| 2026-05-04 18:44 | 42.57659 | 5.79639 | 22987 ft | 425 kts | 112° |
| 2026-05-04 18:44 | 42.56039 | 5.85994 | 22993 ft | 425 kts | 112° |
| 2026-05-04 18:44 | 42.55084 | 5.89724 | 22990 ft | 425 kts | 112° |
| 2026-05-04 18:45 | 42.54112 | 5.93513 | 22982 ft | 425 kts | 112° |
| 2026-05-04 18:45 | 42.53146 | 5.97281 | 22988 ft | 424 kts | 112° |
| 2026-05-04 18:45 | 42.52176 | 6.01071 | 22988 ft | 425 kts | 112° |
| 2026-05-04 18:45 | 42.51210 | 6.04843 | 22988 ft | 425 kts | 112° |
| 2026-05-04 18:46 | 42.50243 | 6.08622 | 22992 ft | 425 kts | 112° |
| 2026-05-04 18:46 | 42.49268 | 6.12422 | 22975 ft | 425 kts | 112° |
| 2026-05-04 18:46 | 42.48296 | 6.16199 | 22983 ft | 424 kts | 112° |
| 2026-05-04 18:46 | 42.47325 | 6.19968 | 22988 ft | 424 kts | 112° |
| 2026-05-04 18:47 | 42.46353 | 6.23739 | 22986 ft | 424 kts | 112° |
| 2026-05-04 18:47 | 42.45374 | 6.27525 | 22997 ft | 424 kts | 112° |
| 2026-05-04 18:47 | 42.44396 | 6.31293 | 22999 ft | 424 kts | 112° |
| 2026-05-04 18:47 | 42.43418 | 6.35051 | 22988 ft | 424 kts | 112° |
| 2026-05-04 18:48 | 42.42432 | 6.38819 | 22981 ft | 424 kts | 113° |
| 2026-05-04 18:48 | 42.41445 | 6.42584 | 22985 ft | 424 kts | 112° |
| 2026-05-04 18:48 | 42.40480 | 6.46275 | 22986 ft | 425 kts | 112° |
| 2026-05-04 18:48 | 42.39487 | 6.50066 | 22966 ft | 425 kts | 112° |
| 2026-05-04 18:49 | 42.38502 | 6.53825 | 22973 ft | 425 kts | 112° |
| 2026-05-04 18:49 | 42.37511 | 6.57601 | 22977 ft | 425 kts | 112° |
| 2026-05-04 18:49 | 42.36522 | 6.61365 | 22979 ft | 426 kts | 112° |
| 2026-05-04 18:49 | 42.35535 | 6.65120 | 22982 ft | 426 kts | 112° |
| 2026-05-04 18:50 | 42.34542 | 6.68890 | 22981 ft | 426 kts | 113° |
| 2026-05-04 18:50 | 42.33542 | 6.72673 | 22991 ft | 426 kts | 113° |
| 2026-05-04 18:50 | 42.32539 | 6.76458 | 22991 ft | 426 kts | 113° |
| 2026-05-04 18:50 | 42.31540 | 6.80224 | 22993 ft | 427 kts | 113° |
| 2026-05-04 18:51 | 42.30537 | 6.83995 | 22999 ft | 427 kts | 113° |
| 2026-05-04 18:51 | 42.29531 | 6.87768 | 22985 ft | 427 kts | 113° |
| 2026-05-04 18:51 | 42.28526 | 6.91546 | 22987 ft | 427 kts | 113° |
| 2026-05-04 18:51 | 42.27520 | 6.95330 | 22991 ft | 427 kts | 113° |
| 2026-05-04 18:52 | 42.26517 | 6.99090 | 22997 ft | 427 kts | 113° |
| 2026-05-04 18:52 | 42.25508 | 7.02863 | 23000 ft | 428 kts | 113° |
| 2026-05-04 18:52 | 42.24491 | 7.06650 | 23016 ft | 428 kts | 113° |
| 2026-05-04 18:52 | 42.23480 | 7.10415 | 23012 ft | 428 kts | 113° |
| 2026-05-04 18:53 | 42.22468 | 7.14186 | 23010 ft | 428 kts | 113° |
| 2026-05-04 18:53 | 42.21466 | 7.17912 | 23002 ft | 427 kts | 113° |
| 2026-05-04 18:53 | 42.20452 | 7.21679 | 23003 ft | 428 kts | 113° |
| 2026-05-04 18:53 | 42.19434 | 7.25449 | 23002 ft | 428 kts | 113° |
| 2026-05-04 18:54 | 42.18400 | 7.29274 | 23013 ft | 428 kts | 113° |
| 2026-05-04 18:54 | 42.17394 | 7.32984 | 23003 ft | 428 kts | 113° |
| 2026-05-04 18:54 | 42.16384 | 7.36712 | 22759 ft | 419 kts | 113° |
| 2026-05-04 18:54 | 42.15388 | 7.40386 | 22486 ft | 414 kts | 113° |
| 2026-05-04 18:55 | 42.14402 | 7.44010 | 22231 ft | 411 kts | 113° |
| 2026-05-04 18:55 | 42.12434 | 7.51195 | 21711 ft | 406 kts | 114° |
| 2026-05-04 18:55 | 42.11458 | 7.54769 | 21446 ft | 404 kts | 113° |
| 2026-05-04 18:56 | 42.10491 | 7.58308 | 21200 ft | 402 kts | 113° |
| 2026-05-04 18:56 | 42.09528 | 7.61827 | 20930 ft | 400 kts | 113° |
| 2026-05-04 18:56 | 42.08573 | 7.65319 | 20662 ft | 395 kts | 113° |
| 2026-05-04 18:56 | 42.07945 | 7.67611 | 20373 ft | 392 kts | 113° |
| 2026-05-04 18:57 | 42.07002 | 7.71043 | 19885 ft | 390 kts | 113° |
| 2026-05-04 18:57 | 42.06059 | 7.74454 | 19400 ft | 388 kts | 113° |
| 2026-05-04 18:57 | 42.05114 | 7.77863 | 18903 ft | 387 kts | 113° |
| 2026-05-04 18:57 | 42.04175 | 7.81250 | 18409 ft | 386 kts | 113° |
| 2026-05-04 18:58 | 42.03239 | 7.84630 | 17856 ft | 385 kts | 113° |
| 2026-05-04 18:58 | 42.02308 | 7.87993 | 17359 ft | 383 kts | 114° |
| 2026-05-04 18:58 | 42.01375 | 7.91335 | 16884 ft | 381 kts | 114° |
| 2026-05-04 18:58 | 42.00454 | 7.94667 | 16408 ft | 379 kts | 113° |
| 2026-05-04 18:59 | 41.99542 | 7.97987 | 15913 ft | 378 kts | 113° |
| 2026-05-04 18:59 | 41.98635 | 8.01296 | 15445 ft | 376 kts | 113° |
| 2026-05-04 18:59 | 41.97735 | 8.04581 | 14980 ft | 374 kts | 113° |
| 2026-05-04 18:59 | 41.96839 | 8.07857 | 14528 ft | 372 kts | 113° |
| 2026-05-04 19:00 | 41.95949 | 8.11113 | 14068 ft | 370 kts | 113° |
| 2026-05-04 19:00 | 41.95315 | 8.14469 | 13608 ft | 371 kts | 102° |
| 2026-05-04 19:00 | 41.94694 | 8.17752 | 13118 ft | 363 kts | 119° |
| 2026-05-04 19:00 | 41.93193 | 8.20358 | 12620 ft | 349 kts | 146° |
| 2026-05-04 19:01 | 41.91107 | 8.21894 | 12144 ft | 337 kts | 162° |
| 2026-05-04 19:01 | 41.88943 | 8.23111 | 11655 ft | 338 kts | 159° |
| 2026-05-04 19:01 | 41.86843 | 8.24499 | 11192 ft | 337 kts | 156° |
| 2026-05-04 19:01 | 41.84771 | 8.26000 | 10728 ft | 336 kts | 154° |
| 2026-05-04 19:02 | 41.82738 | 8.27522 | 10272 ft | 334 kts | 154° |
| 2026-05-04 19:02 | 41.80713 | 8.29035 | 9821 ft | 331 kts | 154° |
| 2026-05-04 19:02 | 41.78701 | 8.30518 | 9318 ft | 326 kts | 155° |
| 2026-05-04 19:02 | 41.76756 | 8.31934 | 8817 ft | 310 kts | 155° |
| 2026-05-04 19:03 | 41.74903 | 8.33266 | 8349 ft | 296 kts | 155° |
| 2026-05-04 19:03 | 41.73119 | 8.34539 | 7873 ft | 287 kts | 154° |
| 2026-05-04 19:03 | 41.71351 | 8.35791 | 7391 ft | 287 kts | 155° |
| 2026-05-04 19:03 | 41.69585 | 8.37036 | 6943 ft | 288 kts | 155° |
| 2026-05-04 19:04 | 41.67812 | 8.38287 | 6463 ft | 288 kts | 155° |
| 2026-05-04 19:04 | 41.66052 | 8.39548 | 6001 ft | 288 kts | 152° |
| 2026-05-04 19:04 | 41.64574 | 8.41358 | 5519 ft | 293 kts | 128° |
| 2026-05-04 19:04 | 41.63567 | 8.43696 | 5033 ft | 284 kts | 123° |
| 2026-05-04 19:05 | 41.62688 | 8.46008 | 4566 ft | 275 kts | 114° |
| 2026-05-04 19:05 | 41.62368 | 8.48504 | 4053 ft | 275 kts | 91° |
| 2026-05-04 19:05 | 41.62813 | 8.50973 | 3618 ft | 280 kts | 66° |
| 2026-05-04 19:05 | 41.63916 | 8.53111 | 3256 ft | 280 kts | 52° |
| 2026-05-04 19:06 | 41.65135 | 8.55140 | 2991 ft | 278 kts | 52° |
| 2026-05-04 19:06 | 41.66348 | 8.57153 | 2982 ft | 279 kts | 53° |
| 2026-05-04 19:06 | 41.67524 | 8.59222 | 2986 ft | 278 kts | 57° |
| 2026-05-04 19:06 | 41.68639 | 8.61329 | 2988 ft | 277 kts | 58° |
| 2026-05-04 19:07 | 41.69734 | 8.63456 | 2991 ft | 277 kts | 58° |
| 2026-05-04 19:07 | 41.70824 | 8.65585 | 2994 ft | 278 kts | 58° |
| 2026-05-04 19:07 | 41.72120 | 8.67505 | 2996 ft | 282 kts | 37° |
| 2026-05-04 19:07 | 41.73848 | 8.68743 | 2997 ft | 281 kts | 25° |
| 2026-05-04 19:08 | 41.75579 | 8.69816 | 3005 ft | 264 kts | 25° |
| 2026-05-04 19:08 | 41.77197 | 8.70809 | 2999 ft | 248 kts | 25° |
| 2026-05-04 19:08 | 41.78714 | 8.71741 | 2991 ft | 233 kts | 25° |
| 2026-05-04 19:08 | 41.80151 | 8.72626 | 2992 ft | 220 kts | 26° |
| 2026-05-04 19:09 | 41.81484 | 8.73452 | 3024 ft | 202 kts | 26° |
| 2026-05-04 19:09 | 41.82750 | 8.74231 | 2693 ft | 203 kts | 26° |
| 2026-05-04 19:09 | 41.84044 | 8.75007 | 2268 ft | 202 kts | 26° |
| 2026-05-04 19:09 | 41.85291 | 8.75735 | 1951 ft | 193 kts | 25° |
| 2026-05-04 19:10 | 41.86466 | 8.76473 | 1774 ft | 177 kts | 28° |
| 2026-05-04 19:10 | 41.87520 | 8.77217 | 1454 ft | 172 kts | 27° |
| 2026-05-04 19:10 | 41.88581 | 8.77868 | 1115 ft | 161 kts | 26° |
| 2026-05-04 19:10 | 41.89580 | 8.78478 | 683 ft | 158 kts | 26° |
| 2026-05-04 19:11 | 41.90571 | 8.79084 | 309 ft | 155 kts | 27° |
| 2026-05-04 19:11 | 41.91519 | 8.79708 | 20 ft | 144 kts | 25° |
| 2026-05-04 19:11 | 41.92177 | 8.80121 | 20 ft | 61 kts | 24° |
| 2026-05-04 19:11 | 41.92374 | 8.80227 | 21 ft | 12 kts | 352° |
| 2026-05-04 19:12 | 41.92391 | 8.80170 | 22 ft | 4 kts | 276° |
| 2026-05-04 19:12 | 41.92399 | 8.80022 | 24 ft | 10 kts | 272° |
| 2026-05-04 19:12 | 41.92401 | 8.79949 | 26 ft | 6 kts | 272° |
| 2026-05-04 19:13 | 41.92377 | 8.79902 | 28 ft | 11 kts | 220° |
| 2026-05-04 19:13 | 41.92307 | 8.79857 | 29 ft | 13 kts | 202° |
| 2026-05-04 19:13 | 41.92210 | 8.79804 | 30 ft | 13 kts | 202° |
| 2026-05-04 19:13 | 41.92139 | 8.79756 | 30 ft | 10 kts | 204° |
| 2026-05-04 19:14 | 41.92085 | 8.79725 | 27 ft | 6 kts | 203° |
| 2026-05-04 19:14 | 41.92063 | 8.79713 | 26 ft | 0 kts | 204° |
| 2026-05-04 19:14 | 41.92032 | 8.79654 | 29 ft | 9 kts | 242° |
| 2026-05-04 19:14 | 41.91989 | 8.79629 | 27 ft | 4 kts | 182° |
| 2026-05-04 19:15 | 41.91945 | 8.79627 | 26 ft | 8 kts | 186° |
| 2026-05-04 19:15 | 41.91880 | 8.79599 | 27 ft | 10 kts | 201° |
| 2026-05-04 19:15 | 41.91863 | 8.79590 | 31 ft | 0 kts | 202° |
| 2026-05-04 19:15 | 41.91848 | 8.79582 | 30 ft | 4 kts | 203° |
| 2026-05-04 19:16 | 41.91826 | 8.79568 | 27 ft | 0 kts | 211° |
| 2026-05-04 19:16 | 41.91823 | 8.79564 | 30 ft | 5 kts | 214° |
| 2026-05-04 19:16 | 41.91806 | 8.79522 | 27 ft | 0 kts | 289° |
| 2026-05-04 19:16 | 41.91822 | 8.79517 | 26 ft | 2 kts | 340° |
| 2026-05-04 19:17 | 41.91835 | 8.79511 | 28 ft | 1 kts | 343° |
| 2026-05-04 19:17 | 41.91842 | 8.79508 | 29 ft | 0 kts | 343° |